Time;durP1;ratioP1;P1;durP2;ratioP2;P2;SDS_P1;SDS_P2;PMS_P1;PMS_P2;Temp;Humidity;BMP_temperature;BMP_pressure;BME280_temperature;BME280_humidity;BME280_pressure;Samples;Min_cycle;Max_cycle;Signal;HPM_P1;HPM_P2
2023/10/12 00:00:48;;;;;;;9.03;4.10;;;21.00;69.00;;;;;;5073613;28;20559;-57
2023/10/12 00:03:16;;;;;;;9.63;4.77;;;20.90;68.30;;;;;;5073776;28;20457;-57
2023/10/12 00:05:45;;;;;;;11.20;4.50;;;20.90;68.60;;;;;;5073756;28;20445;-57
2023/10/12 00:08:24;;;;;;;10.23;4.47;;;20.90;68.60;;;;;;5073713;28;20449;-57
2023/10/12 00:10:54;;;;;;;7.77;3.70;;;20.80;68.80;;;;;;5073726;28;20457;-57
2023/10/12 00:13:27;;;;;;;7.07;4.03;;;20.80;68.90;;;;;;5073766;28;20448;-57
2023/10/12 00:15:55;;;;;;;6.20;4.23;;;20.70;68.80;;;;;;5074130;28;20420;-57
2023/10/12 00:18:22;;;;;;;9.77;4.47;;;20.70;68.90;;;;;;5073637;28;20498;-57
2023/10/12 00:20:51;;;;;;;10.30;4.43;;;20.70;68.80;;;;;;5073249;28;20456;-57
2023/10/12 00:23:18;;;;;;;10.13;4.70;;;20.80;68.90;;;;;;5073538;28;20506;-56
2023/10/12 00:25:54;;;;;;;11.20;4.80;;;20.80;69.20;;;;;;5073196;28;20954;-57
2023/10/12 00:28:22;;;;;;;9.63;4.47;;;20.80;69.10;;;;;;5073630;28;20455;-57
2023/10/12 00:30:54;;;;;;;6.77;4.57;;;20.80;69.70;;;;;;5073445;28;20500;-57
2023/10/12 00:33:21;;;;;;;11.00;4.93;;;20.80;68.70;;;;;;5073465;28;20461;-57
2023/10/12 00:36:00;;;;;;;12.53;4.90;;;20.70;68.60;;;;;;5073273;28;20445;-57
2023/10/12 00:38:29;;;;;;;15.47;4.77;;;20.70;68.90;;;;;;5073463;28;20429;-57
2023/10/12 00:40:58;;;;;;;9.93;4.07;;;20.70;68.80;;;;;;5072978;28;21044;-57
2023/10/12 00:43:28;;;;;;;5.30;4.43;;;20.60;68.60;;;;;;5073272;28;20444;-57
2023/10/12 00:45:55;;;;;;;13.07;5.63;;;20.60;69.20;;;;;;5073433;28;20857;-57
2023/10/12 00:48:28;;;;;;;8.20;4.50;;;20.60;69.00;;;;;;5073343;28;20524;-57
2023/10/12 00:50:57;;;;;;;12.67;5.13;;;20.60;68.40;;;;;;5073100;28;20846;-57
2023/10/12 00:53:31;;;;;;;10.77;4.60;;;20.50;68.60;;;;;;5073313;28;20447;-56
2023/10/12 00:56:01;;;;;;;7.80;4.47;;;20.40;68.30;;;;;;5073231;28;20421;-57
2023/10/12 00:58:27;;;;;;;7.83;4.23;;;20.50;69.30;;;;;;5074232;28;20429;-57
2023/10/12 01:01:01;;;;;;;13.03;5.30;;;20.50;69.00;;;;;;5073219;28;20533;-57
2023/10/12 01:03:36;;;;;;;10.70;4.37;;;20.40;68.10;;;;;;5073281;28;20452;-57
2023/10/12 01:08:50;;;;;;;11.20;4.80;;;20.40;68.90;;;;;;5065330;28;20459;-57
2023/10/12 01:11:21;;;;;;;12.37;4.13;;;20.40;69.00;;;;;;5073011;28;20452;-57
2023/10/12 01:13:49;;;;;;;9.47;5.20;;;20.30;69.20;;;;;;5075767;28;20413;-57
2023/10/12 01:16:22;;;;;;;12.20;5.57;;;20.30;69.10;;;;;;5076620;28;20444;-57
2023/10/12 01:18:51;;;;;;;12.10;6.37;;;20.30;69.50;;;;;;5077063;28;20428;-57
2023/10/12 01:21:20;;;;;;;8.77;4.67;;;20.20;70.00;;;;;;5076913;28;20461;-57
2023/10/12 01:23:50;;;;;;;10.37;5.37;;;20.30;70.50;;;;;;5076873;28;20455;-57
2023/10/12 01:26:18;;;;;;;9.97;3.90;;;20.30;70.60;;;;;;5077589;28;20437;-57
2023/10/12 01:28:49;;;;;;;6.70;4.67;;;20.20;72.60;;;;;;5076805;28;20449;-57
2023/10/12 01:31:27;;;;;;;8.30;4.23;;;20.10;73.90;;;;;;5076664;28;20475;-57
2023/10/12 01:33:55;;;;;;;7.13;4.80;;;20.00;73.80;;;;;;5076813;28;20424;-57
2023/10/12 01:36:23;;;;;;;11.50;4.33;;;19.90;74.00;;;;;;5076274;28;20958;-57
2023/10/12 01:38:56;;;;;;;11.13;4.93;;;19.80;74.40;;;;;;5076622;28;20565;-57
2023/10/12 01:41:26;;;;;;;10.10;4.63;;;19.80;74.60;;;;;;5076229;28;20936;-57
2023/10/12 01:43:53;;;;;;;7.03;4.43;;;19.80;75.20;;;;;;5076496;28;20543;-57
2023/10/12 01:46:23;;;;;;;8.60;5.33;;;19.70;76.10;;;;;;5076405;28;20539;-57
2023/10/12 01:48:52;;;;;;;9.83;4.23;;;19.80;77.30;;;;;;5076419;28;20448;-57
2023/10/12 01:51:24;;;;;;;6.43;4.63;;;19.70;76.60;;;;;;5076319;28;20558;-57
2023/10/12 01:53:53;;;;;;;9.83;4.87;;;19.60;77.60;;;;;;5076087;28;20431;-57
2023/10/12 01:56:19;;;;;;;6.07;4.43;;;19.50;76.40;;;;;;5076151;28;20444;-56
2023/10/12 01:58:48;;;;;;;10.87;5.40;;;19.50;77.90;;;;;;5075909;28;20951;-55
2023/10/12 02:01:20;;;;;;;7.33;5.70;;;19.50;79.80;;;;;;5076142;28;20464;-55
2023/10/12 02:03:48;;;;;;;10.17;5.83;;;19.40;81.80;;;;;;5076146;28;20519;-55
2023/10/12 02:06:16;;;;;;;7.10;6.00;;;19.30;82.10;;;;;;5076203;28;20543;-56
2023/10/12 02:08:47;;;;;;;7.23;6.17;;;19.30;83.30;;;;;;5075984;28;20529;-56
2023/10/12 02:11:27;;;;;;;12.07;5.60;;;19.20;83.50;;;;;;5076100;28;20884;-55
2023/10/12 02:13:55;;;;;;;13.20;6.37;;;19.20;85.00;;;;;;5075926;28;20424;-55
2023/10/12 02:16:25;;;;;;;10.67;5.60;;;19.10;85.70;;;;;;5076005;28;20452;-54
2023/10/12 02:18:53;;;;;;;8.33;5.83;;;19.00;86.80;;;;;;5076118;28;20432;-54
2023/10/12 02:21:22;;;;;;;10.77;6.60;;;19.00;88.40;;;;;;5075827;28;20492;-55
2023/10/12 02:23:57;;;;;;;9.03;6.90;;;18.90;89.20;;;;;;5074924;28;20471;-55
2023/10/12 02:26:35;;;;;;;10.63;6.00;;;18.80;90.60;;;;;;5075453;28;20468;-56
2023/10/12 02:29:12;;;;;;;13.63;5.90;;;18.80;91.00;;;;;;5075436;28;20471;-56
2023/10/12 02:31:46;;;;;;;9.77;6.23;;;18.80;91.20;;;;;;5075536;28;20457;-56
2023/10/12 02:34:16;;;;;;;9.63;6.87;;;18.80;91.30;;;;;;5075265;28;20903;-56
2023/10/12 02:36:46;;;;;;;9.10;6.47;;;18.80;91.70;;;;;;5075438;28;20435;-56
2023/10/12 02:39:21;;;;;;;6.87;6.17;;;18.80;91.90;;;;;;5075556;28;20547;-57
2023/10/12 02:41:56;;;;;;;10.33;7.17;;;18.70;91.80;;;;;;5075434;28;20439;-56
2023/10/12 02:44:23;;;;;;;13.03;7.03;;;18.70;91.90;;;;;;5075384;28;20439;-57
2023/10/12 02:47:05;;;;;;;10.37;7.10;;;18.60;91.90;;;;;;5074986;28;20520;-57
2023/10/12 02:49:37;;;;;;;10.20;6.23;;;18.60;92.00;;;;;;5075267;28;20437;-57
2023/10/12 02:52:08;;;;;;;13.03;6.53;;;18.60;92.30;;;;;;5075299;28;20425;-57
2023/10/12 02:54:50;;;;;;;8.37;6.70;;;18.60;92.10;;;;;;5074967;28;20899;-57
2023/10/12 02:57:22;;;;;;;10.67;6.93;;;18.60;92.20;;;;;;5075114;28;20551;-57
2023/10/12 02:59:56;;;;;;;9.03;6.57;;;18.60;92.40;;;;;;5075109;28;20838;-57
2023/10/12 03:02:31;;;;;;;15.40;6.90;;;18.60;92.60;;;;;;5074696;28;20861;-56
2023/10/12 03:04:59;;;;;;;10.40;6.77;;;18.50;92.40;;;;;;5075001;28;20425;-56
2023/10/12 03:07:27;;;;;;;9.80;7.20;;;18.60;92.80;;;;;;5074552;28;20934;-56
2023/10/12 03:09:56;;;;;;;8.13;7.17;;;18.60;93.00;;;;;;5074546;28;20476;-56
2023/10/12 03:12:25;;;;;;;15.33;8.07;;;18.60;93.00;;;;;;5074811;28;20878;-56
2023/10/12 03:14:52;;;;;;;12.43;6.73;;;18.60;93.00;;;;;;5074636;28;20452;-57
2023/10/12 03:17:19;;;;;;;10.93;7.10;;;18.60;93.00;;;;;;5074629;28;20484;-57
2023/10/12 03:19:55;;;;;;;7.63;6.80;;;18.50;92.90;;;;;;5074566;28;20511;-57
2023/10/12 03:22:26;;;;;;;11.73;7.30;;;18.50;92.60;;;;;;5074618;28;20451;-57
2023/10/12 03:24:53;;;;;;;10.57;8.07;;;18.50;92.80;;;;;;5074632;28;20429;-56
2023/10/12 03:27:23;;;;;;;12.60;7.13;;;18.40;92.90;;;;;;5074525;28;20459;-56
2023/10/12 03:30:00;;;;;;;14.10;7.73;;;18.30;92.90;;;;;;5074381;28;20534;-55
2023/10/12 03:32:27;;;;;;;12.20;8.27;;;18.30;93.40;;;;;;5074453;28;20428;-56
2023/10/12 03:34:54;;;;;;;12.63;7.70;;;18.20;93.70;;;;;;5074254;28;20494;-56
2023/10/12 03:37:40;;;;;;;11.10;7.70;;;18.10;93.90;;;;;;5073924;28;20476;-56
2023/10/12 03:42:52;;;;;;;14.17;9.23;;;18.10;94.20;;;;;;5073824;28;20794;-56
2023/10/12 03:45:24;;;;;;;12.50;7.70;;;18.10;94.30;;;;;;5074134;28;20445;-57
2023/10/12 03:48:03;;;;;;;10.37;7.60;;;18.20;94.50;;;;;;5074099;28;20881;-57
2023/10/12 03:50:51;;;;;;;14.63;8.73;;;18.20;94.60;;;;;;5073984;28;20469;-57
2023/10/12 03:53:23;;;;;;;12.80;7.60;;;18.30;94.60;;;;;;5073592;28;20444;-56
2023/10/12 03:55:56;;;;;;;11.17;8.20;;;18.30;94.60;;;;;;5074022;28;20425;-57
2023/10/12 03:58:24;;;;;;;12.53;8.33;;;18.40;94.70;;;;;;5074374;28;20472;-57
2023/10/12 04:01:10;;;;;;;13.87;8.50;;;18.50;94.60;;;;;;5073853;28;20461;-57
2023/10/12 04:03:39;;;;;;;18.77;8.97;;;18.50;94.40;;;;;;5073850;28;20813;-57
2023/10/12 04:06:23;;;;;;;9.30;7.87;;;18.50;94.20;;;;;;5073897;28;20444;-57
2023/10/12 04:08:54;;;;;;;10.17;7.47;;;18.50;94.10;;;;;;5073657;28;20501;-57
2023/10/12 04:14:42;;;;;;;11.20;8.30;;;18.60;94.20;;;;;;5073430;28;20983;-57
2023/10/12 04:17:19;;;;;;;10.80;7.73;;;18.60;94.10;;;;;;5073356;28;20436;-57
2023/10/12 04:20:07;;;;;;;10.57;8.07;;;18.70;94.10;;;;;;5073738;28;20517;-57
2023/10/12 04:22:41;;;;;;;9.50;6.97;;;18.70;94.10;;;;;;5073366;28;20445;-57
2023/10/12 04:25:13;;;;;;;12.30;7.60;;;18.70;94.10;;;;;;5073397;28;20964;-57
2023/10/12 04:27:47;;;;;;;11.77;7.83;;;18.70;94.20;;;;;;5074417;28;20425;-57
2023/10/12 04:30:21;;;;;;;10.10;7.80;;;18.80;94.00;;;;;;5073558;28;20461;-57
2023/10/12 04:33:11;;;;;;;11.23;7.63;;;18.80;94.00;;;;;;5073502;28;20520;-57
2023/10/12 04:36:06;;;;;;;9.00;7.60;;;18.80;94.00;;;;;;5073482;28;20433;-57
2023/10/12 04:38:56;;;;;;;9.90;7.37;;;18.80;94.10;;;;;;5073385;28;20465;-56
2023/10/12 04:41:39;;;;;;;9.20;7.83;;;18.80;93.90;;;;;;5073589;28;20460;-56
2023/10/12 04:46:51;;;;;;;14.90;8.80;;;18.70;94.20;;;;;;5066635;28;20422;-56
2023/10/12 04:49:54;;;;;;;11.67;8.83;;;18.60;94.40;;;;;;5072791;28;20441;-56
2023/10/12 04:52:26;;;;;;;11.93;8.40;;;18.60;94.50;;;;;;5073601;28;20428;-56
2023/10/12 04:55:06;;;;;;;12.53;8.20;;;18.60;94.70;;;;;;5073095;28;20431;-56
2023/10/12 04:57:34;;;;;;;14.63;9.00;;;18.60;94.90;;;;;;5073390;28;20538;-56
2023/10/12 05:00:10;;;;;;;12.77;8.13;;;18.50;95.00;;;;;;5073341;28;20971;-55
2023/10/12 05:02:54;;;;;;;11.80;9.40;;;18.50;95.10;;;;;;5073375;28;20424;-55
2023/10/12 05:08:07;;;;;;;11.17;7.60;;;18.50;95.30;;;;;;5073434;28;20404;-56
2023/10/12 05:10:46;;;;;;;16.97;8.63;;;18.50;95.50;;;;;;5072844;28;21004;-56
2023/10/12 05:13:19;;;;;;;13.10;9.60;;;18.50;95.60;;;;;;5073144;28;20862;-56
2023/10/12 05:15:54;;;;;;;13.33;8.40;;;18.50;95.70;;;;;;5073166;28;20428;-56
2023/10/12 05:18:22;;;;;;;19.00;8.17;;;18.50;95.60;;;;;;5072767;28;20476;-56
2023/10/12 05:20:51;;;;;;;14.03;8.87;;;18.50;95.70;;;;;;5072949;28;20460;-56
2023/10/12 05:23:18;;;;;;;9.97;8.20;;;18.50;95.80;;;;;;5072991;28;20467;-56
2023/10/12 05:26:07;;;;;;;9.07;7.33;;;18.50;95.80;;;;;;5073007;28;20469;-56
2023/10/12 05:28:37;;;;;;;13.83;8.17;;;18.50;95.90;;;;;;5072948;28;20432;-56
2023/10/12 05:31:13;;;;;;;13.93;8.33;;;18.50;96.00;;;;;;5072843;28;20522;-56
2023/10/12 05:33:43;;;;;;;12.90;8.20;;;18.50;96.00;;;;;;5072877;28;20799;-56
2023/10/12 05:36:14;;;;;;;12.87;7.40;;;18.60;96.10;;;;;;5072639;28;20907;-56
2023/10/12 05:38:48;;;;;;;10.73;7.47;;;18.50;96.10;;;;;;5072548;28;21000;-56
2023/10/12 05:41:21;;;;;;;13.70;7.60;;;18.50;96.20;;;;;;5072820;28;20522;-56
2023/10/12 05:43:48;;;;;;;12.20;9.10;;;18.50;96.30;;;;;;5072868;28;20535;-56
2023/10/12 05:46:15;;;;;;;10.33;7.07;;;18.50;96.30;;;;;;5072766;28;20473;-56
2023/10/12 05:48:45;;;;;;;11.50;7.43;;;18.40;96.30;;;;;;5072749;28;20472;-56
2023/10/12 05:51:15;;;;;;;18.50;8.37;;;18.40;96.40;;;;;;5072700;28;20476;-56
2023/10/12 05:53:42;;;;;;;14.57;7.50;;;18.50;96.40;;;;;;5072689;28;20433;-56
2023/10/12 05:56:09;;;;;;;15.20;8.00;;;18.40;96.40;;;;;;5072394;28;20938;-56
2023/10/12 05:58:38;;;;;;;12.33;8.07;;;18.40;96.60;;;;;;5072845;28;20833;-56
2023/10/12 06:01:09;;;;;;;12.27;8.40;;;18.40;96.40;;;;;;5075824;28;20990;-56
2023/10/12 06:03:39;;;;;;;14.93;8.37;;;18.40;96.50;;;;;;5075934;28;20786;-56
2023/10/12 06:06:08;;;;;;;11.80;8.53;;;18.40;96.60;;;;;;5076118;28;20429;-56
2023/10/12 06:08:37;;;;;;;22.73;8.43;;;18.40;96.60;;;;;;5075872;28;20440;-57
2023/10/12 06:11:06;;;;;;;11.03;7.50;;;18.40;96.70;;;;;;5075678;28;20461;-56
2023/10/12 06:13:40;;;;;;;16.47;8.10;;;18.40;96.60;;;;;;5075941;28;20441;-56
2023/10/12 06:16:14;;;;;;;12.87;8.57;;;18.30;96.50;;;;;;5076039;28;20432;-57
2023/10/12 06:18:44;;;;;;;11.50;6.80;;;18.30;96.50;;;;;;5075872;28;20521;-57
2023/10/12 06:21:17;;;;;;;11.00;7.90;;;18.40;96.50;;;;;;5075730;28;20543;-57
2023/10/12 06:23:48;;;;;;;13.40;8.27;;;18.40;96.50;;;;;;5075399;28;20445;-57
2023/10/12 06:26:28;;;;;;;9.90;7.93;;;18.30;96.50;;;;;;5075804;28;20191;-57
2023/10/12 06:28:55;;;;;;;14.83;7.87;;;18.40;96.40;;;;;;5075718;28;20513;-57
2023/10/12 06:31:22;;;;;;;13.07;8.90;;;18.30;96.30;;;;;;5075573;28;20472;-57
2023/10/12 06:33:49;;;;;;;14.87;8.60;;;18.30;96.30;;;;;;5075613;28;20475;-57
2023/10/12 06:36:22;;;;;;;13.80;8.57;;;18.30;96.40;;;;;;5075544;28;20448;-57
2023/10/12 06:40:37;;;;;;;12.60;7.80;;;18.30;96.40;;;;;;5075141;28;21000;-57
2023/10/12 06:42:09;;;;;;;11.03;7.80;;;18.30;96.30;;;;;;5074982;28;20448;-57
2023/10/12 06:44:36;;;;;;;9.27;7.90;;;18.30;96.30;;;;;;5075052;28;20911;-57
2023/10/12 06:47:24;;;;;;;19.60;9.10;;;18.30;96.30;;;;;;5075403;28;20441;-57
2023/10/12 06:49:51;;;;;;;13.63;8.10;;;18.30;96.20;;;;;;5075056;28;20543;-57
2023/10/12 06:52:19;;;;;;;16.07;9.00;;;18.40;96.30;;;;;;5075281;28;20445;-57
2023/10/12 06:54:54;;;;;;;10.17;8.07;;;18.30;96.30;;;;;;5075165;28;20449;-57
2023/10/12 06:57:42;;;;;;;13.40;8.30;;;18.40;96.40;;;;;;5075158;28;20424;-57
2023/10/12 07:03:07;;;;;;;12.00;8.10;;;18.40;96.40;;;;;;5064047;28;20530;-57
2023/10/12 07:05:37;;;;;;;17.00;8.27;;;18.40;96.50;;;;;;5075012;28;20436;-57
2023/10/12 07:08:07;;;;;;;10.67;7.40;;;18.40;96.30;;;;;;5074930;28;20506;-57
2023/10/12 07:10:35;;;;;;;14.90;8.60;;;18.40;96.40;;;;;;5073612;28;20485;-57
2023/10/12 07:13:03;;;;;;;9.03;7.20;;;18.40;96.40;;;;;;5074554;28;20934;-57
2023/10/12 07:15:38;;;;;;;9.70;7.30;;;18.50;96.50;;;;;;5074792;28;20449;-57
2023/10/12 07:18:13;;;;;;;16.87;8.37;;;18.50;96.50;;;;;;5074418;28;20850;-57
2023/10/12 07:20:46;;;;;;;16.20;9.07;;;18.50;96.40;;;;;;5074661;28;20496;-57
2023/10/12 07:23:16;;;;;;;11.53;7.80;;;18.50;96.50;;;;;;5074403;28;20903;-57
2023/10/12 07:25:51;;;;;;;8.83;7.00;;;18.50;96.40;;;;;;5074771;28;20445;-57
2023/10/12 07:28:25;;;;;;;12.60;8.03;;;18.50;96.50;;;;;;5074452;28;20421;-57
2023/10/12 07:31:23;;;;;;;10.83;7.53;;;18.50;96.40;;;;;;5074525;28;20830;-57
2023/10/12 07:33:59;;;;;;;10.67;7.70;;;18.50;96.30;;;;;;5074674;28;20484;-56
2023/10/12 07:36:44;;;;;;;8.50;7.63;;;18.50;96.30;;;;;;5074896;28;20424;-57
2023/10/12 07:39:17;;;;;;;12.17;8.10;;;18.50;96.10;;;;;;5074429;28;20494;-57
2023/10/12 07:41:53;;;;;;;8.63;7.73;;;18.50;96.30;;;;;;5074463;28;20424;-57
2023/10/12 07:44:21;;;;;;;11.90;7.97;;;18.50;96.20;;;;;;5074368;28;20429;-57
2023/10/12 07:46:48;;;;;;;12.60;8.07;;;18.60;96.10;;;;;;5073952;28;20468;-57
2023/10/12 07:49:27;;;;;;;13.43;7.80;;;18.50;96.10;;;;;;5074396;28;20445;-57
2023/10/12 07:52:05;;;;;;;12.23;8.30;;;18.60;96.20;;;;;;5074104;28;20831;-57
2023/10/12 07:54:46;;;;;;;14.10;7.20;;;18.60;96.20;;;;;;5074122;28;20856;-57
2023/10/12 07:57:14;;;;;;;14.00;9.17;;;18.70;96.00;;;;;;5074130;28;20425;-57
2023/10/12 07:59:49;;;;;;;8.13;6.90;;;18.70;95.90;;;;;;5073764;28;20499;-57
2023/10/12 08:02:15;;;;;;;10.70;7.67;;;18.70;95.90;;;;;;5073945;28;20435;-57
2023/10/12 08:04:57;;;;;;;9.77;7.60;;;18.70;96.00;;;;;;5074652;28;20449;-57
2023/10/12 08:07:26;;;;;;;11.90;8.00;;;18.70;95.90;;;;;;5074362;28;20520;-57
2023/10/12 08:09:54;;;;;;;9.03;7.07;;;18.80;95.90;;;;;;5073432;28;20468;-57
2023/10/12 08:12:25;;;;;;;10.80;8.37;;;18.80;95.90;;;;;;5073691;28;20449;-57
2023/10/12 08:14:53;;;;;;;13.90;8.60;;;18.80;95.80;;;;;;5073715;28;20425;-57
2023/10/12 08:17:32;;;;;;;11.80;8.70;;;18.80;95.80;;;;;;5073552;28;20997;-57
2023/10/12 08:20:44;;;;;;;10.00;7.70;;;18.80;95.70;;;;;;5074123;28;20494;-57
2023/10/12 08:23:02;;;;;;;12.83;7.40;;;18.80;95.70;;;;;;5073920;28;20449;-57
2023/10/12 08:25:37;;;;;;;14.73;8.67;;;18.80;95.70;;;;;;5073501;28;20476;-57
2023/10/12 08:28:18;;;;;;;10.67;7.90;;;18.90;95.60;;;;;;5073950;28;20464;-57
2023/10/12 08:30:48;;;;;;;10.40;7.53;;;19.00;95.60;;;;;;5073728;28;20460;-57
2023/10/12 08:33:15;;;;;;;12.63;7.67;;;19.00;95.40;;;;;;5073137;28;20480;-57
2023/10/12 08:36:22;;;;;;;10.80;8.43;;;19.00;95.40;;;;;;5073457;28;20481;-57
2023/10/12 08:38:40;;;;;;;17.80;7.63;;;19.10;95.60;;;;;;5072985;28;20476;-57
2023/10/12 08:41:20;;;;;;;10.50;7.43;;;19.10;95.40;;;;;;5073372;28;20497;-57
2023/10/12 08:43:52;;;;;;;10.33;8.23;;;19.20;95.20;;;;;;5073335;28;20435;-57
2023/10/12 08:49:33;;;;;;;11.87;6.57;;;19.30;95.10;;;;;;5072902;28;20450;-57
2023/10/12 08:52:08;;;;;;;9.87;7.73;;;19.30;94.90;;;;;;5072929;28;20428;-57
2023/10/12 08:54:37;;;;;;;10.60;7.73;;;19.40;94.60;;;;;;5073243;28;20421;-57
2023/10/12 08:57:10;;;;;;;9.33;7.63;;;19.50;94.70;;;;;;5073223;28;20494;-57
2023/10/12 08:59:42;;;;;;;9.07;7.33;;;19.50;94.80;;;;;;5072760;28;21126;-57
2023/10/12 09:02:19;;;;;;;15.17;7.43;;;19.60;94.60;;;;;;5072903;28;20923;-57
2023/10/12 09:04:49;;;;;;;15.50;8.50;;;19.60;94.40;;;;;;5073208;28;20432;-57
2023/10/12 09:07:19;;;;;;;13.63;7.30;;;19.60;94.30;;;;;;5073402;28;20460;-56
2023/10/12 09:09:55;;;;;;;10.67;7.10;;;19.70;94.10;;;;;;5072797;28;20479;-57
2023/10/12 09:12:23;;;;;;;8.80;7.33;;;19.70;94.10;;;;;;5073098;28;20530;-57
2023/10/12 09:14:55;;;;;;;14.27;7.10;;;19.80;94.00;;;;;;5072958;28;20445;-57
2023/10/12 09:17:30;;;;;;;12.40;6.80;;;19.90;93.90;;;;;;5072752;28;20899;-57
2023/10/12 09:20:26;;;;;;;11.80;7.00;;;20.00;93.60;;;;;;5072871;28;20491;-57
2023/10/12 09:22:58;;;;;;;11.70;7.23;;;20.10;93.50;;;;;;5073020;28;20527;-57
2023/10/12 09:25:59;;;;;;;14.00;7.70;;;20.20;93.30;;;;;;5072985;28;20433;-57
2023/10/12 09:28:27;;;;;;;9.20;7.20;;;20.40;92.80;;;;;;5072554;28;20447;-57
2023/10/12 09:31:00;;;;;;;10.40;6.20;;;20.40;92.10;;;;;;5072838;28;20465;-57
2023/10/12 09:33:53;;;;;;;14.40;8.10;;;20.50;92.20;;;;;;5073284;28;20429;-57
2023/10/12 09:36:20;;;;;;;13.07;6.67;;;20.60;92.00;;;;;;5076683;28;20539;-57
2023/10/12 09:38:47;;;;;;;13.10;6.97;;;20.80;91.80;;;;;;5076521;28;20545;-57
2023/10/12 09:41:16;;;;;;;9.77;6.63;;;20.80;91.70;;;;;;5076574;28;20472;-57
2023/10/12 09:43:48;;;;;;;9.50;6.47;;;20.90;91.50;;;;;;5076209;28;20498;-57
2023/10/12 09:46:22;;;;;;;11.67;6.87;;;20.90;91.30;;;;;;5076236;28;20429;-57
2023/10/12 09:48:52;;;;;;;10.30;6.80;;;21.00;91.30;;;;;;5076151;28;20945;-57
2023/10/12 09:51:20;;;;;;;7.83;6.40;;;21.10;91.20;;;;;;5076309;28;20471;-57
2023/10/12 09:53:57;;;;;;;8.23;6.40;;;21.20;91.00;;;;;;5076034;28;21076;-57
2023/10/12 09:56:28;;;;;;;8.57;7.00;;;21.30;90.70;;;;;;5076076;28;20891;-57
2023/10/12 09:59:03;;;;;;;8.97;6.60;;;21.30;90.60;;;;;;5076298;28;20810;-57
2023/10/12 10:01:49;;;;;;;12.10;6.10;;;21.40;90.40;;;;;;5076239;28;20460;-57
2023/10/12 10:04:28;;;;;;;8.60;6.73;;;21.50;90.30;;;;;;5076159;28;20433;-57
2023/10/12 10:07:11;;;;;;;9.77;6.70;;;21.60;90.00;;;;;;5076281;28;20425;-57
2023/10/12 10:09:38;;;;;;;9.23;7.07;;;21.70;90.00;;;;;;5075734;28;20479;-57
2023/10/12 10:12:08;;;;;;;11.20;6.47;;;21.80;89.30;;;;;;5075977;28;20448;-57
2023/10/12 10:14:39;;;;;;;10.87;6.73;;;21.90;88.40;;;;;;5075971;28;20440;-57
2023/10/12 10:17:13;;;;;;;16.10;7.23;;;22.00;87.80;;;;;;5076051;28;20432;-57
2023/10/12 10:19:43;;;;;;;11.70;7.87;;;22.20;87.50;;;;;;5075846;28;20487;-57
2023/10/12 10:22:14;;;;;;;10.20;7.27;;;22.40;86.90;;;;;;5075818;28;20448;-57
2023/10/12 10:24:47;;;;;;;15.70;6.43;;;22.70;86.20;;;;;;5075556;28;20906;-57
2023/10/12 10:27:15;;;;;;;11.53;6.53;;;22.90;84.90;;;;;;5075453;28;20824;-57
2023/10/12 10:29:52;;;;;;;13.50;6.40;;;23.10;83.30;;;;;;5075786;28;20460;-57
2023/10/12 10:32:29;;;;;;;16.20;7.13;;;23.30;82.40;;;;;;5075940;28;20482;-57
2023/10/12 10:34:58;;;;;;;9.30;6.23;;;23.40;82.10;;;;;;5075886;28;20528;-57
2023/10/12 10:37:40;;;;;;;14.23;6.70;;;23.60;81.40;;;;;;5075481;28;20544;-57
2023/10/12 10:40:09;;;;;;;12.67;7.07;;;23.60;79.80;;;;;;5075505;28;20489;-57
2023/10/12 10:42:37;;;;;;;11.70;5.93;;;23.60;79.40;;;;;;5075675;28;20445;-57
2023/10/12 10:45:12;;;;;;;10.60;7.20;;;23.40;79.30;;;;;;5074268;28;20939;-57
2023/10/12 10:47:48;;;;;;;12.27;6.50;;;23.30;80.00;;;;;;5075394;28;20432;-57
2023/10/12 10:50:17;;;;;;;10.13;6.80;;;23.20;80.00;;;;;;5075858;28;20466;-57
2023/10/12 10:52:45;;;;;;;11.57;6.00;;;23.10;80.20;;;;;;5074985;28;20981;-57
2023/10/12 10:55:12;;;;;;;7.60;5.83;;;23.10;80.70;;;;;;5075211;28;20468;-57
2023/10/12 10:57:39;;;;;;;9.07;6.70;;;23.10;81.40;;;;;;5075239;28;20513;-57
2023/10/12 11:00:13;;;;;;;12.90;7.13;;;23.10;81.60;;;;;;5075052;28;20511;-57
2023/10/12 11:02:41;;;;;;;9.43;6.23;;;23.10;78.80;;;;;;5075328;28;20807;-57
2023/10/12 11:05:19;;;;;;;10.90;6.67;;;23.10;78.30;;;;;;5075139;28;20448;-57
2023/10/12 11:07:50;;;;;;;8.40;5.70;;;23.10;78.20;;;;;;5075072;28;20429;-57
2023/10/12 11:10:31;;;;;;;11.00;5.77;;;23.10;78.20;;;;;;5074585;28;20526;-57
2023/10/12 11:13:00;;;;;;;8.07;6.40;;;23.10;77.90;;;;;;5074839;28;20917;-57
2023/10/12 11:15:27;;;;;;;7.70;6.33;;;23.10;77.70;;;;;;5074801;28;20452;-57
2023/10/12 11:18:07;;;;;;;12.53;6.90;;;23.00;77.70;;;;;;5074751;28;20899;-57
2023/10/12 11:20:43;;;;;;;10.93;6.83;;;23.00;77.80;;;;;;5074577;28;20570;-57
2023/10/12 11:23:11;;;;;;;13.50;7.07;;;22.90;80.40;;;;;;5074742;28;20428;-57
2023/10/12 11:25:41;;;;;;;10.37;6.77;;;22.90;81.00;;;;;;5074697;28;20537;-57
2023/10/12 11:28:19;;;;;;;8.13;6.80;;;22.90;81.20;;;;;;5074332;28;20551;-57
2023/10/12 11:30:46;;;;;;;13.77;7.83;;;22.90;80.70;;;;;;5074224;28;20989;-57
2023/10/12 11:33:16;;;;;;;10.50;7.10;;;22.90;80.70;;;;;;5074535;28;20449;-57
2023/10/12 11:35:44;;;;;;;7.97;6.73;;;22.90;80.30;;;;;;5074542;28;20437;-57
2023/10/12 11:38:17;;;;;;;9.00;7.10;;;22.90;80.30;;;;;;5074473;28;20440;-57
2023/10/12 11:40:44;;;;;;;8.83;5.70;;;22.80;79.60;;;;;;5074291;28;20488;-57
2023/10/12 11:43:12;;;;;;;12.53;6.67;;;22.80;79.90;;;;;;5074365;28;20455;-57
2023/10/12 11:45:54;;;;;;;11.57;6.50;;;22.70;79.20;;;;;;5074421;28;20856;-57
2023/10/12 11:48:24;;;;;;;6.47;5.23;;;22.60;80.00;;;;;;5074185;28;20504;-57
2023/10/12 11:50:51;;;;;;;10.50;5.27;;;22.60;80.20;;;;;;5074146;28;20480;-57
2023/10/12 11:53:18;;;;;;;8.50;5.43;;;22.50;79.90;;;;;;5074163;28;20444;-57
2023/10/12 11:55:47;;;;;;;5.70;4.47;;;22.40;79.80;;;;;;5073743;28;20445;-57
2023/10/12 11:58:18;;;;;;;7.20;4.23;;;22.30;80.80;;;;;;5073781;28;20451;-57
2023/10/12 12:00:48;;;;;;;4.97;4.47;;;22.20;80.70;;;;;;5073639;28;21013;-57
2023/10/12 12:03:15;;;;;;;7.83;5.37;;;22.00;80.50;;;;;;5074163;28;20425;-57
2023/10/12 12:05:50;;;;;;;8.70;4.73;;;21.90;82.40;;;;;;5073921;28;20440;-57
2023/10/12 12:08:18;;;;;;;10.33;5.27;;;21.80;82.00;;;;;;5073921;28;20428;-57
2023/10/12 12:10:46;;;;;;;9.47;5.47;;;21.60;83.50;;;;;;5073784;28;20461;-57
2023/10/12 12:13:13;;;;;;;9.80;4.90;;;21.50;84.10;;;;;;5073783;28;20441;-57
2023/10/12 12:15:43;;;;;;;10.03;4.77;;;21.40;84.20;;;;;;5073765;28;20451;-57
2023/10/12 12:18:14;;;;;;;9.77;5.00;;;21.50;84.50;;;;;;5073951;28;20424;-57
2023/10/12 12:20:44;;;;;;;12.07;5.30;;;21.50;83.20;;;;;;5073762;28;20480;-57
2023/10/12 12:23:12;;;;;;;8.33;4.73;;;21.50;82.70;;;;;;5073689;28;20448;-57
2023/10/12 12:25:40;;;;;;;6.83;4.73;;;21.40;84.90;;;;;;5073601;28;20440;-57
2023/10/12 12:28:08;;;;;;;7.63;5.80;;;21.30;84.90;;;;;;5073571;28;20481;-57
2023/10/12 12:30:39;;;;;;;9.83;5.70;;;21.30;86.00;;;;;;5073512;28;20496;-57
2023/10/12 12:33:08;;;;;;;7.87;5.10;;;21.30;87.00;;;;;;5073211;28;20942;-57
2023/10/12 12:35:37;;;;;;;12.43;5.37;;;21.20;87.40;;;;;;5073475;28;20808;-57
2023/10/12 12:38:17;;;;;;;11.33;5.33;;;21.20;87.30;;;;;;5073403;28;20448;-57
2023/10/12 12:40:45;;;;;;;5.00;4.50;;;21.10;88.20;;;;;;5073434;28;20484;-57
2023/10/12 12:43:12;;;;;;;11.83;5.37;;;21.10;88.70;;;;;;5073435;28;20479;-56
2023/10/12 12:45:41;;;;;;;11.50;5.53;;;21.10;90.10;;;;;;5073201;28;20437;-56
2023/10/12 12:48:08;;;;;;;10.33;6.67;;;21.00;90.30;;;;;;5073396;28;20547;-56
2023/10/12 12:50:34;;;;;;;9.60;6.10;;;21.00;90.90;;;;;;5073274;28;20471;-56
2023/10/12 12:53:04;;;;;;;7.53;5.97;;;21.00;91.20;;;;;;5073339;28;20954;-57
2023/10/12 12:55:32;;;;;;;8.33;5.10;;;21.00;91.40;;;;;;5073319;28;20433;-57
2023/10/12 12:58:00;;;;;;;9.10;6.10;;;21.10;91.40;;;;;;5073241;28;20444;-57
2023/10/12 13:00:27;;;;;;;10.60;6.17;;;21.20;91.50;;;;;;5072831;28;20492;-57
2023/10/12 13:02:53;;;;;;;10.93;5.43;;;21.40;91.20;;;;;;5073225;28;20443;-57
2023/10/12 13:05:20;;;;;;;9.33;5.60;;;21.40;90.20;;;;;;5073252;28;20436;-57
2023/10/12 13:07:47;;;;;;;12.10;5.77;;;21.40;90.40;;;;;;5073184;28;20456;-57
2023/10/12 13:10:14;;;;;;;7.83;5.60;;;21.50;90.80;;;;;;5076164;28;20476;-57
2023/10/12 13:12:41;;;;;;;9.07;5.57;;;21.60;90.60;;;;;;5077256;28;20518;-57
2023/10/12 13:15:11;;;;;;;8.57;5.93;;;21.50;90.00;;;;;;5077038;28;21023;-57
2023/10/12 13:17:38;;;;;;;8.80;5.90;;;21.50;89.30;;;;;;5077016;28;20824;-57
2023/10/12 13:20:07;;;;;;;10.17;5.57;;;21.40;89.20;;;;;;5077037;28;20489;-57
2023/10/12 13:22:35;;;;;;;9.20;6.30;;;21.30;90.00;;;;;;5076736;28;20444;-57
2023/10/12 13:25:04;;;;;;;17.27;6.90;;;21.40;90.70;;;;;;5076992;28;20552;-57
2023/10/12 13:27:32;;;;;;;9.90;6.23;;;21.20;89.80;;;;;;5076906;28;20452;-57